createdAt,value
2023-03-06T00:01:54.776Z,100981.14
2023-03-06T00:05:05.826Z,100976.96
2023-03-06T00:08:17.137Z,100979.46
2023-03-06T00:11:28.759Z,100968.77
2023-03-06T00:14:40.473Z,100967.10
2023-03-06T00:17:51.974Z,100959.60
2023-03-06T00:21:03.073Z,100955.58
2023-03-06T00:24:14.035Z,100951.71
2023-03-06T00:27:26.475Z,100950.98
2023-03-06T00:30:38.018Z,100946.90
2023-03-06T00:33:49.821Z,100941.88
2023-03-06T00:36:59.873Z,100939.33
2023-03-06T00:40:03.864Z,100935.27
2023-03-06T00:43:15.812Z,100931.69
2023-03-06T00:46:20.377Z,100927.58
2023-03-06T00:49:31.681Z,100924.55
2023-03-06T00:52:42.758Z,100917.62
2023-03-06T00:55:53.812Z,100913.04
2023-03-06T00:59:04.692Z,100910.46
2023-03-06T01:02:15.905Z,100910.38
2023-03-06T01:05:19.451Z,100908.18
2023-03-06T01:08:30.504Z,100906.67
2023-03-06T01:11:41.636Z,100903.32
2023-03-06T01:14:52.755Z,100897.06
2023-03-06T01:18:03.841Z,100893.71
2023-03-06T01:21:06.595Z,100893.70
2023-03-06T01:24:10.759Z,100893.58
2023-03-06T01:27:21.594Z,100888.48
2023-03-06T01:30:32.536Z,100882.88
2023-03-06T01:33:43.634Z,100876.72
2023-03-06T01:36:54.569Z,100878.23
2023-03-06T01:40:06.670Z,100875.75
2023-03-06T01:43:27.771Z,100871.80
2023-03-06T01:46:42.518Z,100867.95
2023-03-06T01:50:04.032Z,100861.52
2023-03-06T01:53:08.803Z,100858.45
2023-03-06T01:56:19.701Z,100857.38
2023-03-06T01:59:31.165Z,100846.85
2023-03-06T02:02:43.867Z,100842.46
2023-03-06T02:05:56.039Z,100840.38
2023-03-06T02:09:08.659Z,100830.67
2023-03-06T02:12:13.436Z,100822.66
2023-03-06T02:15:25.946Z,100823.58
2023-03-06T02:18:37.284Z,100821.30
2023-03-06T02:21:49.125Z,100816.98
2023-03-06T02:25:05.426Z,100817.52
2023-03-06T02:28:18.071Z,100812.89
2023-03-06T02:31:29.023Z,100807.60
2023-03-06T02:34:58.577Z,100805.36
2023-03-06T02:38:11.347Z,100797.63
2023-03-06T02:41:22.230Z,100790.80
2023-03-06T02:44:34.589Z,100786.58
2023-03-06T02:47:45.586Z,100782.04
2023-03-06T02:50:56.745Z,100780.10
2023-03-06T02:54:08.138Z,100780.35
2023-03-06T02:57:19.006Z,100777.92
2023-03-06T03:00:30.547Z,100775.52
2023-03-06T03:03:41.428Z,100768.45
2023-03-06T03:06:52.336Z,100767.98
2023-03-06T03:10:03.427Z,100766.36
2023-03-06T03:13:14.246Z,100763.41
2023-03-06T03:16:25.334Z,100758.86
2023-03-06T03:19:36.337Z,100754.21
2023-03-06T03:22:50.837Z,100750.21
2023-03-06T03:26:08.944Z,100741.08
2023-03-06T03:29:14.001Z,100736.42
2023-03-06T03:32:24.848Z,100735.26
2023-03-06T03:35:35.729Z,100726.55
2023-03-06T03:38:46.785Z,100725.11
2023-03-06T03:41:58.478Z,100722.23
2023-03-06T03:45:10.727Z,100715.12
2023-03-06T03:48:21.499Z,100714.95
2023-03-06T03:51:33.041Z,100714.56
2023-03-06T03:54:43.894Z,100709.73
2023-03-06T03:57:55.151Z,100705.83
2023-03-06T04:01:06.552Z,100704.20
2023-03-06T04:04:17.569Z,100701.20
2023-03-06T04:07:29.187Z,100691.56
2023-03-06T04:10:40.739Z,100689.30
2023-03-06T04:13:51.545Z,100688.02
2023-03-06T04:17:02.601Z,100684.39
2023-03-06T04:20:15.048Z,100683.13
2023-03-06T04:23:27.998Z,100685.45
2023-03-06T04:26:39.347Z,100680.81
2023-03-06T04:29:51.546Z,100677.34
2023-03-06T04:33:02.458Z,100674.12
2023-03-06T04:36:19.355Z,100670.66
2023-03-06T04:39:30.537Z,100671.52
2023-03-06T04:42:41.315Z,100672.47
2023-03-06T04:45:52.276Z,100664.96
2023-03-06T04:49:51.098Z,100659.17
2023-03-06T04:52:36.571Z,100655.60
2023-03-06T04:55:47.371Z,100654.77
2023-03-06T04:58:49.244Z,100645.13
2023-03-06T05:02:00.049Z,100644.94
2023-03-06T05:05:17.762Z,100641.10
2023-03-06T05:08:16.054Z,100641.86
2023-03-06T05:11:26.902Z,100642.12
2023-03-06T05:14:37.729Z,100640.17
2023-03-06T05:17:49.136Z,100635.85
2023-03-06T05:20:53.330Z,100639.17
2023-03-06T05:24:04.203Z,100640.65
2023-03-06T05:27:20.976Z,100633.20
2023-03-06T05:30:37.299Z,100631.56
2023-03-06T05:33:48.642Z,100631.08
2023-03-06T05:37:01.938Z,100631.80
2023-03-06T05:40:14.484Z,100629.80
2023-03-06T05:43:23.830Z,100624.64
2023-03-06T05:46:17.511Z,100623.42
2023-03-06T05:49:28.427Z,100621.67
2023-03-06T05:52:40.272Z,100623.39
2023-03-06T05:55:42.865Z,100623.92
2023-03-06T05:58:53.992Z,100625.48
2023-03-06T06:02:05.809Z,100621.26
2023-03-06T06:05:17.192Z,100622.64
2023-03-06T06:08:29.320Z,100620.77
2023-03-06T06:11:40.494Z,100614.52
2023-03-06T06:14:44.508Z,100612.87
2023-03-06T06:17:55.876Z,100608.34
2023-03-06T06:21:14.569Z,100605.02
2023-03-06T06:24:26.073Z,100599.20
2023-03-06T06:27:37.269Z,100594.39
2023-03-06T06:31:00.982Z,100586.77
2023-03-06T06:34:05.202Z,100591.16
2023-03-06T06:37:16.598Z,100585.91
2023-03-06T06:40:33.045Z,100576.02
2023-03-06T06:43:44.422Z,100575.29
2023-03-06T06:50:26.832Z,100573.19
2023-03-06T06:53:37.713Z,100573.14
2023-03-06T06:56:48.542Z,100566.44
2023-03-06T07:00:05.565Z,100564.65
2023-03-06T07:07:25.508Z,100558.85
2023-03-06T07:10:29.982Z,100556.75
2023-03-06T07:13:41.055Z,100554.65
2023-03-06T07:16:51.982Z,100552.05
2023-03-06T07:20:03.965Z,100550.89
2023-03-06T07:23:14.791Z,100556.48
2023-03-06T07:26:26.021Z,100560.39
2023-03-06T07:29:42.640Z,100554.52
2023-03-06T07:32:55.994Z,100552.73
2023-03-06T07:36:12.173Z,100549.56
2023-03-06T07:39:23.939Z,100543.80
2023-03-06T07:42:34.846Z,100541.80
2023-03-06T07:45:47.121Z,100537.85
2023-03-06T07:48:58.394Z,100535.73
2023-03-06T07:52:23.267Z,100538.92
2023-03-06T07:55:34.257Z,100536.62
2023-03-06T07:58:46.661Z,100529.63
2023-03-06T08:01:57.895Z,100521.77
2023-03-06T08:05:10.633Z,100524.06
2023-03-06T08:08:04.446Z,100524.15
2023-03-06T08:11:17.291Z,100520.06
2023-03-06T08:14:28.274Z,100519.11
2023-03-06T08:17:38.964Z,100521.23
2023-03-06T08:20:43.283Z,100524.17
2023-03-06T08:23:54.492Z,100522.23
2023-03-06T08:27:05.611Z,100516.99
2023-03-06T08:30:17.371Z,100510.29
2023-03-06T08:33:28.403Z,100509.42
2023-03-06T08:36:39.679Z,100507.02
2023-03-06T08:39:50.639Z,100502.05
2023-03-06T08:43:01.982Z,100494.69
2023-03-06T08:46:13.324Z,100492.64
2023-03-06T08:49:24.368Z,100493.11
2023-03-06T08:52:35.466Z,100498.25
2023-03-06T08:55:31.296Z,100499.80
2023-03-06T08:58:21.855Z,100496.52
2023-03-06T09:01:34.531Z,100495.73
2023-03-06T09:04:34.184Z,100488.19
2023-03-06T09:07:45.626Z,100485.52
2023-03-06T09:10:56.727Z,100483.07
2023-03-06T09:13:58.893Z,100480.73
2023-03-06T09:17:09.656Z,100483.59
2023-03-06T09:20:10.194Z,100480.25
2023-03-06T09:23:06.233Z,100475.53
2023-03-06T09:26:10.207Z,100476.19
2023-03-06T09:29:21.434Z,100475.39
2023-03-06T09:32:32.735Z,100479.14
2023-03-06T09:35:47.962Z,100477.26
2023-03-06T09:38:50.814Z,100478.61
2023-03-06T09:42:03.510Z,100476.02
2023-03-06T09:45:14.690Z,100473.71
2023-03-06T09:48:13.525Z,100473.44
2023-03-06T09:51:13.960Z,100471.38
2023-03-06T09:54:13.551Z,100467.16
2023-03-06T09:57:24.088Z,100465.16
2023-03-06T10:00:32.379Z,100460.19
2023-03-06T10:03:40.031Z,100458.85
2023-03-06T10:06:52.101Z,100462.76
2023-03-06T10:09:58.629Z,100456.19
2023-03-06T10:13:05.172Z,100456.23
2023-03-06T10:16:23.151Z,100452.77
2023-03-06T10:19:35.219Z,100453.67
2023-03-06T10:23:00.860Z,100452.23
2023-03-06T10:26:30.503Z,100452.29
2023-03-06T10:30:01.307Z,100445.73
2023-03-06T10:33:23.364Z,100445.77
2023-03-06T10:36:27.853Z,100446.69
2023-03-06T10:39:37.522Z,100444.58
2023-03-06T10:42:52.095Z,100439.27
2023-03-06T10:45:55.827Z,100436.72
2023-03-06T10:49:09.740Z,100435.52
2023-03-06T10:52:24.921Z,100435.42
2023-03-06T10:55:29.152Z,100432.58
2023-03-06T10:58:32.014Z,100432.55
2023-03-06T11:01:35.345Z,100429.51
2023-03-06T11:04:50.427Z,100426.08
2023-03-06T11:08:02.120Z,100420.80
2023-03-06T11:11:05.384Z,100419.89
2023-03-06T11:14:15.353Z,100418.12
2023-03-06T11:17:27.890Z,100419.94
2023-03-06T11:20:51.637Z,100420.55
2023-03-06T11:23:45.635Z,100415.54
2023-03-06T11:26:46.330Z,100414.17
2023-03-06T11:29:50.886Z,100406.47
2023-03-06T11:32:47.488Z,100405.25
2023-03-06T11:35:47.896Z,100402.65
2023-03-06T11:38:59.559Z,100399.92
2023-03-06T11:42:16.248Z,100399.23
2023-03-06T11:45:19.403Z,100397.61
2023-03-06T11:48:26.165Z,100392.23
2023-03-06T11:51:28.332Z,100388.85
2023-03-06T11:54:30.653Z,100387.29
2023-03-06T11:57:47.648Z,100387.57
2023-03-06T12:01:01.801Z,100379.55
2023-03-06T12:04:14.044Z,100378.16
2023-03-06T12:07:22.557Z,100377.48
2023-03-06T12:10:24.159Z,100370.48
2023-03-06T12:13:35.907Z,100367.30
2023-03-06T12:17:03.046Z,100362.36
2023-03-06T12:20:01.265Z,100361.15
2023-03-06T12:22:57.680Z,100359.77
2023-03-06T12:26:14.649Z,100355.05
2023-03-06T12:29:14.116Z,100353.11
2023-03-06T12:32:14.256Z,100351.48
2023-03-06T12:35:25.848Z,100347.73
2023-03-06T12:38:38.760Z,100345.73
2023-03-06T12:41:44.832Z,100340.56
2023-03-06T12:44:53.618Z,100336.19
2023-03-06T12:48:06.010Z,100335.55
2023-03-06T12:51:18.624Z,100329.38
2023-03-06T12:54:23.630Z,100332.29
2023-03-06T12:57:26.767Z,100330.72
2023-03-06T13:00:52.629Z,100327.95
2023-03-06T13:04:18.011Z,100321.42
2023-03-06T13:07:34.854Z,100317.89
2023-03-06T13:10:48.475Z,100316.82
2023-03-06T13:13:52.338Z,100311.45
2023-03-06T13:17:16.727Z,100307.77
2023-03-06T13:20:41.057Z,100299.74
2023-03-06T13:24:04.905Z,100292.94
2023-03-06T13:27:36.245Z,100292.98
2023-03-06T13:30:47.289Z,100295.73
2023-03-06T13:34:00.459Z,100297.44
2023-03-06T13:37:14.310Z,100290.45
2023-03-06T13:40:30.717Z,100286.08
2023-03-06T13:43:43.475Z,100277.13
2023-03-06T13:47:00.794Z,100273.95
2023-03-06T13:50:20.706Z,100273.33
2023-03-06T13:53:48.227Z,100276.21
2023-03-06T13:56:53.233Z,100277.36
2023-03-06T14:00:22.665Z,100271.16
2023-03-06T14:03:45.824Z,100270.95
2023-03-06T14:06:54.741Z,100269.48
2023-03-06T14:10:09.927Z,100269.37
2023-03-06T14:13:23.524Z,100262.52
2023-03-06T14:20:15.310Z,100259.62
2023-03-06T14:23:28.102Z,100257.92
2023-03-06T14:26:44.200Z,100253.23
2023-03-06T14:30:05.979Z,100251.64
2023-03-06T14:37:25.960Z,100247.55
2023-03-06T14:40:38.330Z,100246.91
2023-03-06T14:43:49.247Z,100244.08
2023-03-06T14:47:13.434Z,100240.42
2023-03-06T14:50:25.830Z,100237.60
2023-03-06T14:53:36.745Z,100235.03
2023-03-06T14:56:48.939Z,100232.55
2023-03-06T15:00:00.843Z,100231.02
2023-03-06T15:03:45.669Z,100226.30
2023-03-06T15:06:41.515Z,100225.16
2023-03-06T15:09:46.127Z,100225.04
2023-03-06T15:13:17.740Z,100223.23
2023-03-06T15:16:37.080Z,100219.40
2023-03-06T15:19:41.814Z,100214.30
2023-03-06T15:22:38.219Z,100214.53
2023-03-06T15:25:53.406Z,100213.64
2023-03-06T15:29:14.256Z,100210.96
2023-03-06T15:32:31.540Z,100207.36
2023-03-06T15:36:21.594Z,100205.26
2023-03-06T15:39:40.197Z,100202.67
2023-03-06T15:42:44.521Z,100200.13
2023-03-06T15:45:45.375Z,100197.22
2023-03-06T15:49:00.285Z,100196.29
2023-03-06T15:52:15.140Z,100197.65
2023-03-06T15:55:18.555Z,100194.16
2023-03-06T15:58:34.242Z,100190.67
2023-03-06T16:01:46.598Z,100184.09
2023-03-06T16:05:18.051Z,100174.95
2023-03-06T16:12:23.979Z,100168.46
2023-03-06T16:15:41.854Z,100163.69
2023-03-06T16:18:52.791Z,100158.92
2023-03-06T16:21:47.912Z,100157.27
2023-03-06T16:24:38.719Z,100153.45
2023-03-06T16:27:50.863Z,100148.82
2023-03-06T16:30:56.343Z,100148.41
2023-03-06T16:33:49.181Z,100145.05
2023-03-06T16:37:15.247Z,100144.98
2023-03-06T16:40:28.483Z,100144.80
2023-03-06T16:43:18.786Z,100147.11
2023-03-06T16:46:13.134Z,100147.41
2023-03-06T16:49:03.513Z,100145.61
2023-03-06T16:51:56.408Z,100144.60
2023-03-06T16:54:47.360Z,100146.58
2023-03-06T16:57:40.200Z,100148.71
2023-03-06T17:00:33.424Z,100149.64
2023-03-06T17:03:25.315Z,100146.20
2023-03-06T17:06:16.537Z,100148.73
2023-03-06T17:09:07.591Z,100149.06
2023-03-06T17:11:57.890Z,100147.78
2023-03-06T17:14:54.744Z,100146.64
2023-03-06T17:17:58.000Z,100148.27
2023-03-06T17:21:00.984Z,100144.91
2023-03-06T17:23:51.791Z,100143.79
2023-03-06T17:26:43.429Z,100142.44
2023-03-06T17:29:33.631Z,100144.17
2023-03-06T17:32:44.401Z,100141.04
2023-03-06T17:35:37.479Z,100142.61
2023-03-06T17:38:41.693Z,100149.08
2023-03-06T17:41:33.054Z,100147.48
2023-03-06T17:44:23.701Z,100148.90
2023-03-06T17:47:34.301Z,100148.14
2023-03-06T17:50:29.618Z,100146.53
2023-03-06T17:53:30.001Z,100146.92
2023-03-06T17:56:20.400Z,100145.58
2023-03-06T17:59:31.804Z,100143.30
2023-03-06T18:02:42.657Z,100139.90
2023-03-06T18:05:32.916Z,100139.45
2023-03-06T18:08:43.461Z,100139.52
2023-03-06T18:11:37.392Z,100140.81
2023-03-06T18:14:30.806Z,100141.27
2023-03-06T18:17:36.214Z,100142.48
2023-03-06T18:20:34.150Z,100141.39
2023-03-06T18:23:29.535Z,100139.18
2023-03-06T18:26:32.581Z,100137.83
2023-03-06T18:29:25.957Z,100136.70
2023-03-06T18:32:19.218Z,100140.17
2023-03-06T18:35:12.587Z,100142.05
2023-03-06T18:38:23.053Z,100142.32
2023-03-06T18:41:18.670Z,100144.50
2023-03-06T18:44:16.351Z,100143.80
2023-03-06T18:47:06.922Z,100149.48
2023-03-06T18:49:59.356Z,100145.57
2023-03-06T18:52:49.710Z,100147.80
2023-03-06T18:55:59.973Z,100148.15
2023-03-06T18:59:03.719Z,100152.88
2023-03-06T19:02:14.822Z,100150.11
2023-03-06T19:05:10.909Z,100148.52
2023-03-06T19:08:01.292Z,100150.53
2023-03-06T19:10:51.960Z,100151.93
2023-03-06T19:14:02.476Z,100148.98
2023-03-06T19:17:13.120Z,100150.89
2023-03-06T19:20:17.621Z,100147.39
2023-03-06T19:23:07.914Z,100148.67
2023-03-06T19:26:07.675Z,100148.91
2023-03-06T19:29:05.404Z,100150.20
2023-03-06T19:31:57.294Z,100148.18
2023-03-06T19:34:56.572Z,100150.21
2023-03-06T19:37:52.108Z,100152.70
2023-03-06T19:40:54.141Z,100152.30
2023-03-06T19:44:06.285Z,100156.61
2023-03-06T19:47:16.781Z,100156.56
2023-03-06T19:50:28.586Z,100158.67
2023-03-06T19:53:18.999Z,100156.36
2023-03-06T19:56:13.042Z,100155.00
2023-03-06T19:59:03.542Z,100153.43
2023-03-06T20:02:16.270Z,100151.98
2023-03-06T20:05:12.736Z,100146.81
2023-03-06T20:08:23.346Z,100144.83
2023-03-06T20:11:23.951Z,100144.27
2023-03-06T20:14:24.278Z,100140.92
2023-03-06T20:17:23.700Z,100139.58
2023-03-06T20:20:24.394Z,100144.55
2023-03-06T20:23:16.637Z,100149.00
2023-03-06T20:26:28.405Z,100155.11
2023-03-06T20:29:44.681Z,100155.36
2023-03-06T20:32:47.878Z,100162.08
2023-03-06T20:36:01.218Z,100163.71
2023-03-06T20:38:56.847Z,100161.65
2023-03-06T20:41:59.480Z,100160.06
2023-03-06T20:45:18.105Z,100156.98
2023-03-06T20:48:30.763Z,100153.90
2023-03-06T20:51:36.298Z,100146.08
2023-03-06T20:54:38.688Z,100139.59
2023-03-06T20:57:51.565Z,100130.60
2023-03-06T21:01:02.551Z,100133.46
2023-03-06T21:04:04.705Z,100134.80
2023-03-06T21:07:16.434Z,100135.45
2023-03-06T21:10:19.707Z,100143.11
2023-03-06T21:13:15.469Z,100147.64
2023-03-06T21:16:30.476Z,100147.54
2023-03-06T21:19:23.842Z,100144.00
2023-03-06T21:22:34.453Z,100148.45
2023-03-06T21:25:51.825Z,100149.00
2023-03-06T21:29:02.594Z,100143.00
2023-03-06T21:32:13.152Z,100143.17
2023-03-06T21:35:23.589Z,100142.47
2023-03-06T21:38:33.919Z,100141.19
2023-03-06T21:41:38.356Z,100145.14
2023-03-06T21:44:31.790Z,100149.58
2023-03-06T21:47:41.281Z,100150.94
2023-03-06T21:50:52.100Z,100152.38
2023-03-06T21:53:45.420Z,100153.81
2023-03-06T21:56:52.152Z,100155.50
2023-03-06T21:59:44.716Z,100156.27
2023-03-06T22:02:52.838Z,100154.09
2023-03-06T22:05:57.084Z,100154.44
2023-03-06T22:09:07.883Z,100154.14
2023-03-06T22:12:08.533Z,100152.45
2023-03-06T22:15:04.424Z,100150.23
2023-03-06T22:18:15.990Z,100144.84
2023-03-06T22:21:19.451Z,100146.04
2023-03-06T22:24:21.132Z,100145.73
2023-03-06T22:27:25.744Z,100148.52
2023-03-06T22:30:40.427Z,100147.45
2023-03-06T22:33:42.090Z,100148.03
2023-03-06T22:36:55.642Z,100149.26
2023-03-06T22:39:46.160Z,100154.02
2023-03-06T22:42:49.316Z,100150.94
2023-03-06T22:46:01.602Z,100152.00
2023-03-06T22:49:03.452Z,100152.94
2023-03-06T22:52:06.591Z,100151.94
2023-03-06T22:54:59.863Z,100147.80
2023-03-06T22:58:10.556Z,100146.20
2023-03-06T23:01:22.801Z,100146.05
2023-03-06T23:04:23.953Z,100147.90
2023-03-06T23:07:23.248Z,100148.98
2023-03-06T23:10:23.951Z,100145.06
2023-03-06T23:13:32.916Z,100149.30
2023-03-06T23:16:41.616Z,100148.72
2023-03-06T23:19:51.647Z,100143.04
2023-03-06T23:23:01.011Z,100145.48
2023-03-06T23:26:07.047Z,100144.25
2023-03-06T23:29:07.423Z,100140.65
2023-03-06T23:32:08.867Z,100141.88
2023-03-06T23:35:02.203Z,100142.72
2023-03-06T23:38:07.395Z,100144.44
2023-03-06T23:41:10.947Z,100143.67
2023-03-06T23:44:05.087Z,100140.85
2023-03-06T23:47:17.320Z,100135.73
2023-03-06T23:50:28.088Z,100131.20
2023-03-06T23:53:38.886Z,100127.33
2023-03-06T23:56:39.036Z,100123.49
2023-03-06T23:59:49.642Z,100121.81
